createdAt,value
2022-10-02T00:01:54.918Z,14.56
2022-10-02T00:07:18.943Z,14.60
2022-10-02T00:12:43.836Z,14.85
2022-10-02T00:18:11.207Z,14.81
2022-10-02T00:23:38.445Z,14.91
2022-10-02T00:29:09.337Z,14.93
2022-10-02T00:34:37.107Z,14.96
2022-10-02T00:40:04.900Z,14.83
2022-10-02T00:45:41.921Z,14.86
2022-10-02T00:51:11.594Z,14.79
2022-10-02T00:56:37.445Z,14.78
2022-10-02T01:02:07.033Z,15.10
2022-10-02T01:07:30.266Z,15.14
2022-10-02T01:12:53.730Z,15.10
2022-10-02T01:18:18.379Z,14.96
2022-10-02T01:23:48.906Z,14.93
2022-10-02T01:29:13.394Z,15.05
2022-10-02T01:34:36.745Z,15.22
2022-10-02T01:40:01.450Z,15.30
2022-10-02T01:45:34.322Z,14.99
2022-10-02T01:51:09.169Z,15.11
2022-10-02T01:56:37.767Z,15.06
2022-10-02T02:02:09.565Z,15.12
2022-10-02T02:07:35.766Z,15.11
2022-10-02T02:13:02.139Z,14.92
2022-10-02T02:18:30.322Z,15.18
2022-10-02T02:23:54.096Z,15.15
2022-10-02T02:29:18.136Z,15.04
2022-10-02T02:34:46.523Z,14.93
2022-10-02T02:40:13.158Z,14.77
2022-10-02T02:45:38.816Z,14.83
2022-10-02T02:51:05.927Z,14.73
2022-10-02T02:56:30.850Z,14.68
2022-10-02T03:01:53.986Z,14.71
2022-10-02T03:07:18.791Z,14.69
2022-10-02T03:12:51.454Z,14.56
2022-10-02T03:18:24.234Z,14.65
2022-10-02T03:23:57.601Z,14.78
2022-10-02T03:29:26.638Z,14.95
2022-10-02T03:34:50.156Z,14.99
2022-10-02T03:40:14.857Z,15.02
2022-10-02T03:45:50.881Z,15.05
2022-10-02T03:51:14.862Z,15.04
2022-10-02T03:56:42.415Z,14.89
2022-10-02T04:02:09.200Z,14.91
2022-10-02T04:07:35.453Z,14.92
2022-10-02T04:13:04.018Z,14.81
2022-10-02T04:18:31.455Z,14.75
2022-10-02T04:23:57.489Z,14.85
2022-10-02T04:29:25.711Z,14.91
2022-10-02T04:34:48.850Z,14.93
2022-10-02T04:40:20.378Z,14.94
2022-10-02T04:45:57.003Z,14.94
2022-10-02T04:51:34.257Z,14.88
2022-10-02T04:57:07.675Z,14.90
2022-10-02T05:02:39.939Z,14.89
2022-10-02T05:08:15.871Z,14.80
2022-10-02T05:13:52.215Z,14.86
2022-10-02T05:19:43.349Z,14.85
2022-10-02T05:25:16.373Z,14.82
2022-10-02T05:30:47.086Z,14.66
2022-10-02T05:36:21.519Z,14.57
2022-10-02T05:41:50.302Z,14.45
2022-10-02T05:47:18.051Z,14.53
2022-10-02T05:52:47.572Z,14.48
2022-10-02T05:58:15.094Z,14.41
2022-10-02T06:03:45.577Z,14.54
2022-10-02T06:09:20.903Z,14.53
2022-10-02T06:14:50.815Z,14.57
2022-10-02T06:20:19.259Z,14.44
2022-10-02T06:25:46.910Z,14.55
2022-10-02T06:31:12.522Z,14.76
2022-10-02T06:37:15.603Z,14.81
2022-10-02T06:42:48.220Z,15.00
2022-10-02T06:48:19.099Z,15.22
2022-10-02T06:54:01.659Z,15.06
2022-10-02T06:59:41.096Z,15.12
2022-10-02T07:05:26.595Z,15.20
2022-10-02T07:10:57.915Z,15.25
2022-10-02T07:16:39.942Z,15.26
2022-10-02T07:22:32.712Z,15.09
2022-10-02T07:28:05.901Z,15.12
2022-10-02T07:33:48.618Z,15.10
2022-10-02T07:39:20.404Z,15.21
2022-10-02T07:44:54.062Z,15.31
2022-10-02T07:50:24.034Z,15.60
2022-10-02T07:55:52.562Z,15.74
2022-10-02T08:01:19.279Z,15.67
2022-10-02T08:06:45.046Z,15.78
2022-10-02T08:12:28.138Z,15.88
2022-10-02T08:17:54.965Z,16.00
2022-10-02T08:23:23.825Z,16.03
2022-10-02T08:28:51.781Z,16.07
2022-10-02T08:34:19.584Z,15.91
2022-10-02T08:40:12.250Z,16.01
2022-10-02T08:46:06.216Z,15.89
2022-10-02T08:52:05.498Z,15.97
2022-10-02T08:57:47.101Z,16.15
2022-10-02T09:03:36.513Z,16.48
2022-10-02T09:09:26.752Z,16.56
2022-10-02T09:14:56.836Z,16.66
2022-10-02T09:20:41.439Z,16.95
2022-10-02T09:26:13.845Z,17.29
2022-10-02T09:32:04.088Z,17.42
2022-10-02T09:37:52.798Z,17.34
2022-10-02T09:44:03.515Z,17.17
2022-10-02T09:49:48.061Z,16.94
2022-10-02T09:55:52.815Z,16.84
2022-10-02T10:01:31.183Z,16.94
2022-10-02T10:07:27.350Z,16.79
2022-10-02T10:13:18.069Z,16.71
2022-10-02T10:19:22.217Z,16.84
2022-10-02T10:25:30.053Z,16.75
2022-10-02T10:31:39.103Z,16.73
2022-10-02T10:37:21.639Z,16.91
2022-10-02T10:43:24.916Z,17.18
2022-10-02T10:49:06.939Z,17.15
2022-10-02T10:54:58.144Z,17.20
2022-10-02T11:00:22.504Z,17.39
2022-10-02T11:06:17.276Z,16.97
2022-10-02T11:11:55.371Z,16.93
2022-10-02T11:17:50.031Z,17.32
2022-10-02T11:23:44.573Z,17.82
2022-10-02T11:29:47.646Z,17.90
2022-10-02T11:35:23.294Z,17.66
2022-10-02T11:41:15.733Z,17.65
2022-10-02T11:47:04.677Z,18.02
2022-10-02T11:52:45.963Z,18.28
2022-10-02T11:58:25.928Z,18.10
2022-10-02T12:03:59.137Z,17.97
2022-10-02T12:09:32.184Z,18.22
2022-10-02T12:15:01.407Z,18.35
2022-10-02T12:20:50.039Z,18.43
2022-10-02T12:26:48.515Z,17.94
2022-10-02T12:32:23.175Z,18.10
2022-10-02T12:37:56.004Z,18.29
2022-10-02T12:43:55.469Z,18.17
2022-10-02T12:49:33.985Z,18.26
2022-10-02T12:55:29.372Z,18.57
2022-10-02T13:01:15.624Z,18.17
2022-10-02T13:07:06.485Z,17.70
2022-10-02T13:12:39.585Z,17.75
2022-10-02T13:18:13.429Z,18.07
2022-10-02T13:23:42.554Z,18.38
2022-10-02T13:29:19.310Z,18.14
2022-10-02T13:34:54.272Z,18.04
2022-10-02T13:40:22.883Z,18.19
2022-10-02T13:45:50.781Z,18.16
2022-10-02T13:51:25.054Z,18.33
2022-10-02T13:56:56.935Z,18.35
2022-10-02T14:02:31.967Z,18.59
2022-10-02T14:08:08.762Z,18.73
2022-10-02T14:13:45.406Z,18.51
2022-10-02T14:19:20.082Z,17.69
2022-10-02T14:25:04.154Z,17.22
2022-10-02T14:30:32.909Z,16.78
2022-10-02T14:36:01.621Z,16.66
2022-10-02T14:41:36.347Z,16.57
2022-10-02T14:47:15.550Z,17.01
2022-10-02T14:53:01.032Z,17.08
2022-10-02T14:58:34.387Z,16.87
2022-10-02T15:04:11.088Z,17.00
2022-10-02T15:09:41.473Z,17.29
2022-10-02T15:15:10.066Z,17.55
2022-10-02T15:20:50.612Z,17.70
2022-10-02T15:26:31.594Z,17.50
2022-10-02T15:32:20.128Z,17.52
2022-10-02T15:37:49.845Z,17.00
2022-10-02T15:43:29.052Z,16.99
2022-10-02T15:48:59.985Z,17.04
2022-10-02T15:54:32.639Z,17.24
2022-10-02T16:00:06.452Z,17.26
2022-10-02T16:05:55.121Z,17.14
2022-10-02T16:11:41.446Z,17.14
2022-10-02T16:17:20.220Z,16.70
2022-10-02T16:23:00.360Z,16.53
2022-10-02T16:28:36.648Z,16.29
2022-10-02T16:34:05.345Z,16.38
2022-10-02T16:39:53.202Z,16.04
2022-10-02T16:45:34.363Z,15.86
2022-10-02T16:51:29.241Z,15.81
2022-10-02T16:56:55.190Z,15.71
2022-10-02T17:02:24.065Z,15.75
2022-10-02T17:07:54.391Z,15.68
2022-10-02T17:13:26.834Z,15.65
2022-10-02T17:18:56.445Z,15.62
2022-10-02T17:24:34.351Z,15.53
2022-10-02T17:30:00.514Z,15.56
2022-10-02T17:35:39.974Z,15.50
2022-10-02T17:41:12.909Z,15.33
2022-10-02T17:46:50.763Z,15.28
2022-10-02T17:52:42.609Z,15.34
2022-10-02T17:58:12.628Z,15.26
2022-10-02T18:03:53.340Z,15.27
2022-10-02T18:09:47.539Z,15.18
2022-10-02T18:15:25.314Z,15.02
2022-10-02T18:20:57.105Z,15.11
2022-10-02T18:26:29.403Z,15.14
2022-10-02T18:32:07.818Z,15.15
2022-10-02T18:37:51.217Z,15.09
2022-10-02T18:43:42.583Z,15.11
2022-10-02T18:49:26.729Z,15.02
2022-10-02T18:55:04.151Z,15.03
2022-10-02T19:00:50.389Z,15.01
2022-10-02T19:06:16.516Z,14.93
2022-10-02T19:11:44.631Z,14.80
2022-10-02T19:17:14.148Z,14.79
2022-10-02T19:22:38.498Z,14.70
2022-10-02T19:28:02.971Z,14.74
2022-10-02T19:33:33.642Z,14.68
2022-10-02T19:38:59.390Z,14.58
2022-10-02T19:44:28.779Z,14.55
2022-10-02T19:49:56.599Z,14.53
2022-10-02T19:55:23.952Z,14.45
2022-10-02T20:00:47.342Z,14.41
2022-10-02T20:06:14.092Z,14.38
2022-10-02T20:11:41.472Z,14.32
2022-10-02T20:17:10.611Z,14.20
2022-10-02T20:22:36.369Z,14.17
2022-10-02T20:28:03.705Z,14.23
2022-10-02T20:33:31.130Z,14.19
2022-10-02T20:39:00.025Z,14.11
2022-10-02T20:44:23.186Z,14.01
2022-10-02T20:50:04.771Z,13.98
2022-10-02T20:55:34.846Z,13.91
2022-10-02T21:01:13.392Z,13.89
2022-10-02T21:06:53.724Z,13.88
2022-10-02T21:12:44.423Z,13.81
2022-10-02T21:18:30.998Z,13.86
2022-10-02T21:24:15.923Z,13.84
2022-10-02T21:30:03.184Z,13.82
2022-10-02T21:35:54.150Z,13.79
2022-10-02T21:41:39.081Z,13.69
2022-10-02T21:47:37.299Z,13.74
2022-10-02T21:53:22.039Z,13.81
2022-10-02T21:59:06.070Z,13.81
2022-10-02T22:04:56.889Z,13.81
2022-10-02T22:10:26.529Z,13.78
2022-10-02T22:15:56.014Z,13.81
2022-10-02T22:21:36.551Z,13.85
2022-10-02T22:27:16.875Z,13.80
2022-10-02T22:33:14.097Z,13.76
2022-10-02T22:38:40.519Z,13.75
2022-10-02T22:44:06.273Z,13.49
2022-10-02T22:49:33.473Z,13.38
2022-10-02T22:55:03.058Z,13.31
2022-10-02T23:00:28.444Z,13.33
2022-10-02T23:05:54.404Z,13.27
2022-10-02T23:11:22.996Z,13.23
2022-10-02T23:16:49.321Z,12.95
2022-10-02T23:22:19.511Z,13.10
2022-10-02T23:27:58.747Z,13.12
2022-10-02T23:33:24.986Z,13.08
2022-10-02T23:38:52.423Z,13.13
2022-10-02T23:44:27.883Z,13.07
2022-10-02T23:49:53.387Z,13.09
2022-10-02T23:55:23.890Z,13.05
